createdAt,value
2023-05-25T00:01:09.742Z,100.00
2023-05-25T00:03:40.484Z,100.00
2023-05-25T00:06:10.350Z,100.00
2023-05-25T00:08:40.286Z,100.00
2023-05-25T00:11:07.456Z,100.00
2023-05-25T00:13:34.613Z,100.00
2023-05-25T00:16:02.037Z,100.00
2023-05-25T00:18:29.173Z,100.00
2023-05-25T00:20:56.342Z,100.00
2023-05-25T00:23:23.835Z,100.00
2023-05-25T00:25:50.899Z,100.00
2023-05-25T00:28:18.077Z,100.00
2023-05-25T00:30:45.665Z,100.00
2023-05-25T00:33:13.077Z,100.00
2023-05-25T00:35:42.841Z,100.00
2023-05-25T00:38:14.873Z,100.00
2023-05-25T00:40:42.154Z,100.00
2023-05-25T00:43:09.769Z,100.00
2023-05-25T00:45:37.193Z,100.00
2023-05-25T00:48:05.886Z,100.00
2023-05-25T00:50:43.152Z,100.00
2023-05-25T00:53:12.004Z,100.00
2023-05-25T00:55:46.239Z,100.00
2023-05-25T00:58:14.511Z,100.00
2023-05-25T01:00:42.994Z,100.00
2023-05-25T01:03:12.929Z,100.00
2023-05-25T01:05:42.780Z,100.00
2023-05-25T01:08:12.129Z,100.00
2023-05-25T01:10:39.581Z,100.00
2023-05-25T01:13:09.438Z,100.00
2023-05-25T01:15:40.883Z,100.00
2023-05-25T01:18:09.486Z,100.00
2023-05-25T01:20:36.835Z,100.00
2023-05-25T01:23:14.942Z,100.00
2023-05-25T01:25:52.437Z,100.00
2023-05-25T01:28:26.098Z,100.00
2023-05-25T01:30:53.368Z,100.00
2023-05-25T01:33:21.786Z,100.00
2023-05-25T01:35:49.003Z,100.00
2023-05-25T01:38:17.798Z,100.00
2023-05-25T01:40:44.958Z,100.00
2023-05-25T01:43:12.164Z,100.00
2023-05-25T01:45:39.947Z,100.00
2023-05-25T01:48:32.680Z,100.00
2023-05-25T01:51:04.365Z,100.00
2023-05-25T01:53:36.386Z,100.00
2023-05-25T01:56:08.833Z,100.00
2023-05-25T01:58:41.035Z,100.00
2023-05-25T02:01:09.725Z,100.00
2023-05-25T02:03:38.433Z,100.00
2023-05-25T02:06:06.018Z,100.00
2023-05-25T02:08:35.053Z,100.00
2023-05-25T02:11:03.217Z,100.00
2023-05-25T02:13:30.357Z,100.00
2023-05-25T02:15:58.086Z,100.00
2023-05-25T02:18:26.629Z,100.00
2023-05-25T02:20:57.071Z,100.00
2023-05-25T02:23:24.302Z,100.00
2023-05-25T02:25:52.405Z,100.00
2023-05-25T02:28:20.043Z,100.00
2023-05-25T02:30:47.125Z,100.00
2023-05-25T02:33:14.387Z,100.00
2023-05-25T02:35:42.088Z,100.00
2023-05-25T02:38:10.160Z,100.00
2023-05-25T02:40:37.777Z,100.00
2023-05-25T02:43:05.314Z,100.00
2023-05-25T02:45:32.828Z,100.00
2023-05-25T02:47:59.997Z,100.00
2023-05-25T02:50:27.789Z,100.00
2023-05-25T02:52:55.445Z,100.00
2023-05-25T02:55:23.052Z,100.00
2023-05-25T02:57:50.627Z,100.00
2023-05-25T03:00:20.820Z,100.00
2023-05-25T03:02:49.005Z,100.00
2023-05-25T03:05:18.073Z,100.00
2023-05-25T03:07:45.402Z,100.00
2023-05-25T03:10:13.221Z,100.00
2023-05-25T03:12:40.838Z,100.00
2023-05-25T03:15:09.318Z,100.00
2023-05-25T03:17:36.679Z,100.00
2023-05-25T03:20:04.666Z,100.00
2023-05-25T03:22:32.247Z,100.00
2023-05-25T03:24:59.766Z,100.00
2023-05-25T03:27:27.358Z,100.00
2023-05-25T03:29:54.638Z,100.00
2023-05-25T03:32:23.316Z,100.00
2023-05-25T03:34:51.071Z,100.00
2023-05-25T03:37:18.605Z,100.00
2023-05-25T03:39:45.702Z,100.00
2023-05-25T03:42:13.058Z,100.00
2023-05-25T03:44:41.305Z,100.00
2023-05-25T03:47:08.966Z,100.00
2023-05-25T03:49:36.426Z,100.00
2023-05-25T03:52:03.758Z,100.00
2023-05-25T03:54:30.981Z,100.00
2023-05-25T03:57:03.709Z,100.00
2023-05-25T03:59:31.247Z,100.00
2023-05-25T04:02:00.196Z,100.00
2023-05-25T04:04:30.029Z,100.00
2023-05-25T04:06:57.250Z,100.00
2023-05-25T04:09:24.583Z,100.00
2023-05-25T04:11:52.060Z,100.00
2023-05-25T04:14:21.172Z,100.00
2023-05-25T04:16:48.596Z,100.00
2023-05-25T04:19:16.631Z,100.00
2023-05-25T04:21:44.325Z,100.00
2023-05-25T04:24:12.019Z,100.00
2023-05-25T04:26:40.316Z,100.00
2023-05-25T04:29:10.020Z,100.00
2023-05-25T04:31:40.335Z,100.00
2023-05-25T04:34:09.701Z,100.00
2023-05-25T04:36:38.943Z,100.00
2023-05-25T04:39:07.433Z,100.00
2023-05-25T04:41:36.037Z,100.00
2023-05-25T04:44:09.792Z,100.00
2023-05-25T04:46:39.035Z,100.00
2023-05-25T04:49:08.566Z,100.00
2023-05-25T04:51:37.175Z,100.00
2023-05-25T04:54:06.148Z,100.00
2023-05-25T04:56:33.461Z,100.00
2023-05-25T04:59:00.583Z,100.00
2023-05-25T05:01:29.770Z,100.00
2023-05-25T05:03:57.940Z,100.00
2023-05-25T05:06:26.092Z,100.00
2023-05-25T05:08:53.561Z,100.00
2023-05-25T05:11:22.069Z,100.00
2023-05-25T05:13:49.471Z,100.00
2023-05-25T05:16:17.394Z,100.00
2023-05-25T05:18:44.598Z,100.00
2023-05-25T05:21:11.987Z,100.00
2023-05-25T05:23:39.568Z,100.00
2023-05-25T05:26:11.038Z,100.00
2023-05-25T05:28:39.249Z,100.00
2023-05-25T05:31:07.489Z,100.00
2023-05-25T05:33:34.932Z,100.00
2023-05-25T05:36:03.381Z,100.00
2023-05-25T05:38:31.172Z,100.00
2023-05-25T05:40:58.440Z,100.00
2023-05-25T05:43:25.765Z,100.00
2023-05-25T05:45:53.426Z,100.00
2023-05-25T05:48:20.782Z,100.00
2023-05-25T05:50:48.105Z,100.00
2023-05-25T05:53:15.993Z,100.00
2023-05-25T05:55:44.558Z,100.00
2023-05-25T05:58:12.008Z,100.00
2023-05-25T06:00:39.492Z,100.00
2023-05-25T06:03:07.057Z,100.00
2023-05-25T06:05:34.471Z,100.00
2023-05-25T06:08:02.056Z,100.00
2023-05-25T06:10:29.659Z,100.00
2023-05-25T06:12:57.007Z,100.00
2023-05-25T06:15:24.239Z,100.00
2023-05-25T06:17:52.992Z,100.00
2023-05-25T06:20:21.163Z,100.00
2023-05-25T06:22:48.555Z,100.00
2023-05-25T06:25:16.569Z,100.00
2023-05-25T06:27:44.165Z,100.00
2023-05-25T06:30:12.225Z,100.00
2023-05-25T06:32:40.077Z,100.00
2023-05-25T06:35:09.259Z,100.00
2023-05-25T06:37:38.121Z,100.00
2023-05-25T06:40:10.425Z,100.00
2023-05-25T06:42:37.973Z,100.00
2023-05-25T06:45:06.926Z,100.00
2023-05-25T06:47:34.101Z,100.00
2023-05-25T06:50:01.579Z,100.00
2023-05-25T06:52:29.019Z,100.00
2023-05-25T06:54:56.459Z,100.00
2023-05-25T06:57:24.298Z,100.00
2023-05-25T06:59:51.742Z,100.00
2023-05-25T07:02:20.450Z,100.00
2023-05-25T07:04:47.663Z,100.00
2023-05-25T07:07:15.174Z,100.00
2023-05-25T07:09:42.277Z,100.00
2023-05-25T07:12:11.102Z,100.00
2023-05-25T07:14:38.606Z,100.00
2023-05-25T07:17:07.151Z,100.00
2023-05-25T07:23:05.011Z,100.00
2023-05-25T07:25:32.423Z,100.00
2023-05-25T07:27:59.667Z,100.00
2023-05-25T07:33:56.271Z,100.00
2023-05-25T07:36:24.990Z,100.00
2023-05-25T07:38:52.751Z,100.00
2023-05-25T07:41:20.098Z,100.00
2023-05-25T07:43:48.098Z,100.00
2023-05-25T07:46:17.240Z,100.00
2023-05-25T07:48:44.553Z,100.00
2023-05-25T07:51:11.968Z,100.00
2023-05-25T07:53:39.305Z,100.00
2023-05-25T07:56:09.819Z,100.00
2023-05-25T07:58:38.013Z,100.00
2023-05-25T08:01:05.302Z,100.00
2023-05-25T08:03:47.925Z,100.00
2023-05-25T08:06:16.537Z,100.00
2023-05-25T08:08:45.039Z,100.00
2023-05-25T08:11:12.342Z,100.00
2023-05-25T08:13:39.572Z,100.00
2023-05-25T08:16:07.014Z,100.00
2023-05-25T08:18:34.138Z,100.00
2023-05-25T08:21:01.814Z,100.00
2023-05-25T08:23:29.971Z,100.00
2023-05-25T08:25:57.129Z,100.00
2023-05-25T08:28:25.004Z,100.00
2023-05-25T08:30:52.512Z,100.00
2023-05-25T08:33:19.942Z,100.00
2023-05-25T08:35:49.955Z,100.00
2023-05-25T08:38:17.414Z,100.00
2023-05-25T08:40:45.810Z,100.00
2023-05-25T08:43:13.013Z,100.00
2023-05-25T08:45:43.817Z,100.00
2023-05-25T08:48:23.787Z,100.00
2023-05-25T08:51:01.923Z,100.00
2023-05-25T08:53:39.140Z,100.00
2023-05-25T08:56:27.291Z,100.00
2023-05-25T08:59:04.842Z,100.00
2023-05-25T09:01:39.196Z,100.00
2023-05-25T09:04:07.162Z,100.00
2023-05-25T09:06:36.782Z,100.00
2023-05-25T09:09:04.860Z,100.00
2023-05-25T09:11:39.723Z,100.00
2023-05-25T09:14:09.400Z,100.00
2023-05-25T09:16:40.244Z,100.00
2023-05-25T09:19:07.443Z,100.00
2023-05-25T09:21:34.916Z,100.00
2023-05-25T09:24:03.036Z,100.00
2023-05-25T09:26:31.124Z,100.00
2023-05-25T09:28:58.637Z,100.00
2023-05-25T09:31:25.878Z,100.00
2023-05-25T09:34:00.217Z,100.00
2023-05-25T09:36:28.333Z,100.00
2023-05-25T09:41:27.571Z,100.00
2023-05-25T09:44:06.717Z,100.00
2023-05-25T09:46:39.487Z,100.00
2023-05-25T09:49:10.799Z,100.00
2023-05-25T09:51:38.269Z,100.00
2023-05-25T09:54:09.956Z,100.00
2023-05-25T09:56:38.113Z,100.00
2023-05-25T09:59:05.621Z,100.00
2023-05-25T10:01:34.190Z,100.00
2023-05-25T10:04:04.924Z,97.45
2023-05-25T10:06:37.450Z,99.24
2023-05-25T10:09:06.892Z,99.13
2023-05-25T10:11:36.309Z,98.74
2023-05-25T10:14:06.952Z,96.87
2023-05-25T10:16:35.163Z,97.13
2023-05-25T10:19:13.001Z,91.89
2023-05-25T10:21:44.097Z,91.57
2023-05-25T10:24:21.800Z,93.30
2023-05-25T10:26:54.317Z,90.65
2023-05-25T10:29:25.020Z,85.71
2023-05-25T10:31:53.410Z,90.49
2023-05-25T10:34:21.591Z,90.22
2023-05-25T10:36:49.320Z,89.36
2023-05-25T10:39:18.119Z,84.39
2023-05-25T10:41:45.208Z,89.05
2023-05-25T10:44:12.693Z,86.76
2023-05-25T10:46:40.454Z,91.71
2023-05-25T10:49:07.651Z,85.65
2023-05-25T10:51:41.406Z,81.57
2023-05-25T10:54:08.859Z,83.70
2023-05-25T10:56:36.126Z,81.32
2023-05-25T10:59:03.337Z,82.26
2023-05-25T11:01:33.551Z,83.74
2023-05-25T11:04:10.166Z,81.59
2023-05-25T11:06:40.576Z,79.71
2023-05-25T11:09:08.291Z,77.64
2023-05-25T11:11:45.501Z,80.47
2023-05-25T11:14:23.838Z,76.52
2023-05-25T11:17:16.204Z,79.84
2023-05-25T11:19:51.083Z,82.53
2023-05-25T11:22:31.758Z,80.60
2023-05-25T11:25:00.125Z,81.66
2023-05-25T11:27:28.710Z,83.26
2023-05-25T11:29:57.811Z,80.11
2023-05-25T11:32:26.860Z,82.41
2023-05-25T11:34:55.187Z,83.67
2023-05-25T11:37:24.922Z,83.13
2023-05-25T11:39:52.757Z,76.28
2023-05-25T11:42:26.277Z,76.44
2023-05-25T11:44:53.978Z,77.44
2023-05-25T11:47:23.642Z,75.89
2023-05-25T11:49:52.028Z,75.86
2023-05-25T11:52:22.301Z,76.09
2023-05-25T11:54:49.388Z,77.03
2023-05-25T11:57:18.321Z,74.73
2023-05-25T11:59:57.253Z,76.00
2023-05-25T12:02:24.610Z,74.44
2023-05-25T12:04:59.676Z,76.42
2023-05-25T12:07:28.620Z,75.12
2023-05-25T12:10:12.218Z,72.71
2023-05-25T12:12:52.309Z,71.03
2023-05-25T12:15:24.569Z,71.42
2023-05-25T12:17:52.627Z,73.74
2023-05-25T12:20:21.446Z,71.53
2023-05-25T12:22:48.808Z,73.11
2023-05-25T12:25:19.818Z,71.08
2023-05-25T12:27:47.274Z,65.72
2023-05-25T12:30:14.519Z,66.51
2023-05-25T12:32:55.584Z,75.61
2023-05-25T12:35:23.099Z,70.23
2023-05-25T12:37:50.288Z,70.95
2023-05-25T12:40:21.100Z,67.67
2023-05-25T12:42:57.906Z,67.97
2023-05-25T12:45:25.077Z,65.18
2023-05-25T12:47:53.127Z,67.16
2023-05-25T12:50:20.408Z,65.51
2023-05-25T12:52:48.203Z,63.31
2023-05-25T12:55:19.667Z,64.11
2023-05-25T12:57:52.285Z,65.15
2023-05-25T13:00:23.924Z,64.37
2023-05-25T13:02:52.038Z,62.13
2023-05-25T13:05:20.718Z,66.44
2023-05-25T13:07:48.418Z,64.44
2023-05-25T13:10:19.630Z,64.53
2023-05-25T13:12:48.365Z,61.57
2023-05-25T13:15:21.134Z,66.31
2023-05-25T13:17:50.504Z,60.46
2023-05-25T13:20:27.738Z,61.49
2023-05-25T13:22:58.419Z,60.27
2023-05-25T13:25:28.218Z,60.16
2023-05-25T13:27:57.854Z,62.13
2023-05-25T13:30:26.551Z,61.78
2023-05-25T13:32:54.674Z,61.50
2023-05-25T13:35:41.708Z,61.50
2023-05-25T13:38:10.545Z,60.62
2023-05-25T13:40:37.961Z,59.34
2023-05-25T13:43:05.239Z,60.61
2023-05-25T13:45:32.267Z,58.03
2023-05-25T13:47:59.807Z,60.50
2023-05-25T13:50:27.102Z,64.45
2023-05-25T13:52:54.576Z,65.06
2023-05-25T13:55:22.908Z,62.42
2023-05-25T13:57:51.820Z,60.17
2023-05-25T14:00:19.246Z,61.30
2023-05-25T14:02:46.819Z,59.72
2023-05-25T14:05:14.058Z,59.01
2023-05-25T14:07:41.299Z,61.18
2023-05-25T14:10:09.962Z,58.45
2023-05-25T14:12:37.415Z,58.63
2023-05-25T14:15:05.547Z,60.08
2023-05-25T14:17:33.179Z,59.16
2023-05-25T14:20:03.918Z,59.49
2023-05-25T14:22:31.915Z,57.68
2023-05-25T14:24:59.701Z,58.40
2023-05-25T14:27:26.772Z,58.90
2023-05-25T14:29:54.097Z,58.20
2023-05-25T14:32:21.482Z,59.79
2023-05-25T14:34:48.593Z,58.07
2023-05-25T14:37:15.733Z,57.65
2023-05-25T14:39:43.155Z,57.84
2023-05-25T14:42:10.785Z,58.11
2023-05-25T14:44:37.924Z,57.07
2023-05-25T14:47:07.902Z,58.30
2023-05-25T14:49:35.066Z,55.46
2023-05-25T14:52:02.208Z,54.75
2023-05-25T14:54:29.701Z,56.03
2023-05-25T14:56:56.866Z,55.97
2023-05-25T14:59:24.512Z,56.02
2023-05-25T15:01:52.021Z,57.10
2023-05-25T15:04:19.226Z,56.03
2023-05-25T15:06:46.365Z,54.92
2023-05-25T15:09:15.871Z,55.29
2023-05-25T15:11:42.959Z,54.73
2023-05-25T15:14:10.068Z,54.32
2023-05-25T15:16:37.962Z,54.35
2023-05-25T15:19:05.145Z,55.04
2023-05-25T15:21:32.283Z,55.77
2023-05-25T15:23:59.568Z,56.35
2023-05-25T15:26:26.856Z,57.83
2023-05-25T15:28:54.067Z,56.28
2023-05-25T15:31:21.575Z,58.00
2023-05-25T15:33:56.660Z,55.54
2023-05-25T15:36:26.484Z,52.09
2023-05-25T15:38:53.637Z,54.16
2023-05-25T15:41:21.016Z,53.39
2023-05-25T15:43:52.682Z,53.01
2023-05-25T15:46:20.019Z,50.85
2023-05-25T15:48:47.116Z,51.16
2023-05-25T15:51:14.833Z,51.80
2023-05-25T15:53:42.007Z,50.70
2023-05-25T15:56:09.092Z,51.56
2023-05-25T15:58:36.869Z,51.81
2023-05-25T16:01:04.466Z,51.28
2023-05-25T16:03:32.019Z,52.69
2023-05-25T16:05:59.231Z,50.38
2023-05-25T16:08:27.272Z,50.18
2023-05-25T16:10:54.640Z,50.79
2023-05-25T16:13:21.750Z,51.48
2023-05-25T16:15:48.907Z,51.76
2023-05-25T16:18:16.755Z,50.91
2023-05-25T16:20:44.545Z,50.78
2023-05-25T16:23:11.780Z,50.76
2023-05-25T16:25:39.170Z,51.67
2023-05-25T16:28:06.283Z,52.28
2023-05-25T16:30:33.744Z,52.90
2023-05-25T16:33:01.204Z,53.05
2023-05-25T16:35:28.316Z,52.58
2023-05-25T16:37:56.099Z,52.86
2023-05-25T16:40:23.522Z,54.09
2023-05-25T16:42:50.698Z,52.62
2023-05-25T16:45:18.006Z,51.55
2023-05-25T16:47:45.386Z,50.79
2023-05-25T16:50:12.489Z,49.66
2023-05-25T16:52:39.535Z,50.86
2023-05-25T16:55:07.412Z,50.52
2023-05-25T16:57:34.439Z,50.31
2023-05-25T17:00:01.475Z,52.47
2023-05-25T17:02:28.984Z,53.05
2023-05-25T17:04:56.268Z,53.31
2023-05-25T17:07:23.378Z,53.89
2023-05-25T17:09:50.947Z,54.52
2023-05-25T17:12:18.566Z,54.03
2023-05-25T17:14:45.652Z,55.52
2023-05-25T17:17:13.232Z,56.52
2023-05-25T17:19:40.382Z,55.58
2023-05-25T17:22:07.451Z,57.59
2023-05-25T17:24:34.804Z,60.28
2023-05-25T17:27:01.954Z,64.33
2023-05-25T17:29:28.963Z,69.89
2023-05-25T17:31:56.362Z,73.60
2023-05-25T17:34:23.370Z,76.40
2023-05-25T17:36:50.414Z,78.02
2023-05-25T17:39:17.768Z,80.34
2023-05-25T17:41:45.602Z,82.37
2023-05-25T17:44:13.996Z,83.62
2023-05-25T17:46:41.549Z,87.46
2023-05-25T17:49:08.687Z,88.72
2023-05-25T17:51:37.511Z,89.65
2023-05-25T17:54:04.871Z,90.52
2023-05-25T17:56:31.973Z,90.80
2023-05-25T17:59:00.107Z,91.51
2023-05-25T18:01:28.075Z,93.28
2023-05-25T18:03:55.717Z,94.96
2023-05-25T18:06:22.916Z,95.49
2023-05-25T18:08:49.966Z,97.00
2023-05-25T18:11:17.354Z,98.71
2023-05-25T18:13:44.460Z,98.68
2023-05-25T18:16:11.601Z,100.00
2023-05-25T18:18:39.000Z,100.00
2023-05-25T18:21:06.315Z,100.00
2023-05-25T18:23:33.378Z,100.00
2023-05-25T18:26:00.891Z,100.00
2023-05-25T18:28:31.196Z,100.00
2023-05-25T18:30:58.614Z,100.00
2023-05-25T18:33:26.935Z,100.00
2023-05-25T18:35:53.971Z,100.00
2023-05-25T18:38:21.010Z,100.00
2023-05-25T18:40:48.982Z,100.00
2023-05-25T18:43:16.943Z,100.00
2023-05-25T18:45:44.245Z,100.00
2023-05-25T18:48:11.826Z,100.00
2023-05-25T18:50:40.328Z,100.00
2023-05-25T18:53:10.738Z,100.00
2023-05-25T18:55:38.120Z,100.00
2023-05-25T18:58:05.581Z,100.00
2023-05-25T19:00:32.828Z,100.00
2023-05-25T19:03:00.507Z,100.00
2023-05-25T19:05:27.697Z,100.00
2023-05-25T19:07:59.019Z,100.00
2023-05-25T19:10:27.639Z,100.00
2023-05-25T19:12:54.956Z,100.00
2023-05-25T19:15:22.133Z,100.00
2023-05-25T19:17:49.774Z,100.00
2023-05-25T19:20:17.276Z,100.00
2023-05-25T19:22:44.472Z,100.00
2023-05-25T19:25:11.997Z,100.00
2023-05-25T19:27:39.215Z,100.00
2023-05-25T19:30:07.464Z,100.00
2023-05-25T19:32:35.009Z,100.00
2023-05-25T19:35:02.214Z,100.00
2023-05-25T19:37:29.312Z,100.00
2023-05-25T19:39:58.208Z,100.00
2023-05-25T19:42:25.356Z,100.00
2023-05-25T19:44:53.547Z,100.00
2023-05-25T19:47:21.727Z,100.00
2023-05-25T19:49:48.948Z,100.00
2023-05-25T19:52:17.678Z,100.00
2023-05-25T19:54:45.305Z,100.00
2023-05-25T19:57:12.461Z,100.00
2023-05-25T19:59:41.454Z,100.00
2023-05-25T20:02:08.949Z,100.00
2023-05-25T20:04:36.358Z,100.00
2023-05-25T20:07:03.411Z,100.00
2023-05-25T20:09:31.110Z,100.00
2023-05-25T20:11:59.473Z,100.00
2023-05-25T20:14:26.662Z,100.00
2023-05-25T20:16:56.399Z,100.00
2023-05-25T20:19:23.807Z,100.00
2023-05-25T20:21:51.512Z,100.00
2023-05-25T20:24:18.561Z,100.00
2023-05-25T20:26:45.971Z,100.00
2023-05-25T20:29:13.036Z,100.00
2023-05-25T20:31:40.527Z,100.00
2023-05-25T20:34:07.934Z,100.00
2023-05-25T20:36:34.970Z,100.00
2023-05-25T20:39:03.433Z,100.00
2023-05-25T20:41:30.975Z,100.00
2023-05-25T20:43:59.155Z,100.00
2023-05-25T20:46:26.865Z,100.00
2023-05-25T20:48:54.367Z,100.00
2023-05-25T20:51:22.674Z,100.00
2023-05-25T20:53:49.809Z,100.00
2023-05-25T20:56:17.889Z,100.00
2023-05-25T20:58:44.941Z,100.00
2023-05-25T21:01:12.006Z,100.00
2023-05-25T21:03:39.943Z,100.00
2023-05-25T21:06:07.259Z,100.00
2023-05-25T21:08:34.498Z,100.00
2023-05-25T21:11:01.849Z,100.00
2023-05-25T21:13:28.936Z,100.00
2023-05-25T21:15:56.419Z,100.00
2023-05-25T21:18:23.846Z,100.00
2023-05-25T21:20:51.016Z,100.00
2023-05-25T21:23:18.065Z,100.00
2023-05-25T21:25:45.914Z,100.00
2023-05-25T21:28:13.710Z,100.00
2023-05-25T21:30:40.840Z,100.00
2023-05-25T21:33:08.554Z,100.00
2023-05-25T21:35:35.633Z,100.00
2023-05-25T21:38:02.706Z,100.00
2023-05-25T21:40:30.031Z,100.00
2023-05-25T21:42:57.405Z,100.00
2023-05-25T21:45:24.441Z,100.00
2023-05-25T21:47:51.811Z,100.00
2023-05-25T21:50:18.956Z,100.00
2023-05-25T21:52:46.333Z,100.00
2023-05-25T21:55:13.717Z,100.00
2023-05-25T21:57:41.089Z,100.00
2023-05-25T22:00:12.592Z,100.00
2023-05-25T22:02:40.090Z,100.00
2023-05-25T22:05:07.735Z,100.00
2023-05-25T22:07:34.853Z,100.00
2023-05-25T22:10:01.958Z,100.00
2023-05-25T22:12:29.322Z,100.00
2023-05-25T22:14:56.427Z,100.00
2023-05-25T22:17:23.820Z,100.00
2023-05-25T22:20:03.082Z,100.00
2023-05-25T22:22:33.493Z,100.00
2023-05-25T22:25:01.177Z,100.00
2023-05-25T22:27:28.450Z,100.00
2023-05-25T22:29:55.901Z,100.00
2023-05-25T22:32:23.501Z,100.00
2023-05-25T22:34:50.743Z,100.00
2023-05-25T22:37:17.891Z,100.00
2023-05-25T22:39:45.293Z,100.00
2023-05-25T22:42:12.559Z,100.00
2023-05-25T22:44:39.676Z,100.00
2023-05-25T22:47:07.136Z,100.00
2023-05-25T22:49:41.232Z,100.00
2023-05-25T22:52:12.205Z,100.00
2023-05-25T22:54:39.826Z,100.00
2023-05-25T22:57:08.793Z,100.00
2023-05-25T22:59:36.376Z,100.00
2023-05-25T23:02:03.650Z,100.00
2023-05-25T23:04:30.798Z,100.00
2023-05-25T23:06:58.248Z,100.00
2023-05-25T23:09:25.403Z,100.00
2023-05-25T23:11:52.536Z,100.00
2023-05-25T23:14:20.857Z,100.00
2023-05-25T23:16:50.974Z,100.00
2023-05-25T23:19:18.299Z,100.00
2023-05-25T23:21:46.081Z,100.00
2023-05-25T23:24:13.693Z,100.00
2023-05-25T23:26:41.438Z,100.00
2023-05-25T23:29:08.873Z,100.00
2023-05-25T23:31:35.970Z,100.00
2023-05-25T23:34:03.126Z,100.00
2023-05-25T23:36:30.480Z,100.00
2023-05-25T23:38:57.598Z,100.00
2023-05-25T23:41:25.270Z,100.00
2023-05-25T23:43:52.757Z,100.00
2023-05-25T23:46:19.985Z,100.00
2023-05-25T23:48:47.686Z,100.00
2023-05-25T23:51:15.100Z,100.00
2023-05-25T23:53:42.609Z,100.00
2023-05-25T23:56:09.729Z,100.00
2023-05-25T23:58:37.201Z,100.00
